Time;durP1;ratioP1;P1;durP2;ratioP2;P2;SDS_P1;SDS_P2;PMS_P1;PMS_P2;Temp;Humidity;BMP_temperature;BMP_pressure;BME280_temperature;BME280_humidity;BME280_pressure;Samples;Min_cycle;Max_cycle;Signal;HPM_P1;HPM_P2
2022/01/03 00:00:10;;;;;;;200.88;107.95;;;5.20;99.90;;;;;;4971393;28;20106;-74
2022/01/03 00:02:36;;;;;;;241.82;135.48;;;5.30;99.90;;;;;;4971707;28;20475;-74
2022/01/03 00:05:03;;;;;;;263.63;137.00;;;5.30;99.90;;;;;;4971693;28;20027;-74
2022/01/03 00:07:28;;;;;;;244.57;122.68;;;5.30;99.90;;;;;;4971871;28;20030;-74
2022/01/03 00:09:57;;;;;;;253.35;131.13;;;5.30;99.90;;;;;;4971879;28;20026;-74
2022/01/03 00:12:23;;;;;;;210.85;110.80;;;5.40;99.90;;;;;;4972269;28;20031;-75
2022/01/03 00:14:50;;;;;;;198.38;100.80;;;5.40;99.90;;;;;;4972363;28;20073;-74
2022/01/03 00:17:16;;;;;;;179.30;98.10;;;5.50;99.90;;;;;;4971912;28;20044;-74
2022/01/03 00:19:42;;;;;;;205.65;105.60;;;5.50;99.90;;;;;;4972361;28;20021;-72
2022/01/03 00:22:11;;;;;;;203.25;109.63;;;5.50;99.90;;;;;;4972465;28;20046;-73
2022/01/03 00:24:42;;;;;;;197.88;104.05;;;5.60;99.90;;;;;;4969706;28;20027;-73
2022/01/03 00:27:14;;;;;;;224.48;110.53;;;5.60;99.90;;;;;;4972017;28;20519;-73
2022/01/03 00:29:48;;;;;;;202.52;103.45;;;5.50;99.90;;;;;;4970670;28;20026;-73
2022/01/03 00:32:14;;;;;;;205.38;107.30;;;5.60;99.90;;;;;;4969200;28;20351;-74
2022/01/03 00:34:41;;;;;;;227.60;117.57;;;5.60;99.90;;;;;;4971777;28;20057;-73
2022/01/03 00:37:09;;;;;;;244.90;128.98;;;5.60;99.90;;;;;;4971850;28;20511;-74
2022/01/03 00:39:36;;;;;;;220.55;111.00;;;5.60;99.90;;;;;;4969160;28;20022;-74
2022/01/03 00:42:03;;;;;;;202.02;104.93;;;5.60;99.90;;;;;;4971928;28;20047;-74
2022/01/03 00:44:30;;;;;;;191.65;101.05;;;5.50;99.90;;;;;;4971811;28;20092;-74
2022/01/03 00:46:57;;;;;;;214.02;111.65;;;5.50;99.90;;;;;;4969450;28;20031;-74
2022/01/03 00:49:23;;;;;;;308.60;162.75;;;5.50;99.90;;;;;;4972136;28;20077;-73
2022/01/03 00:51:49;;;;;;;238.23;123.03;;;5.40;99.90;;;;;;4971473;28;20031;-74
2022/01/03 00:54:14;;;;;;;220.05;113.18;;;5.30;99.90;;;;;;4971666;28;20034;-74
2022/01/03 00:56:46;;;;;;;217.85;118.00;;;5.30;99.90;;;;;;4971877;28;20088;-74
2022/01/03 00:59:23;;;;;;;200.52;105.97;;;5.30;99.90;;;;;;4970634;28;20076;-73
2022/01/03 01:01:51;;;;;;;185.77;98.13;;;5.30;99.90;;;;;;4971814;28;20122;-74
2022/01/03 01:04:18;;;;;;;185.55;98.00;;;5.30;99.90;;;;;;4969726;28;20034;-74
2022/01/03 01:06:46;;;;;;;177.05;93.70;;;5.30;99.90;;;;;;4971692;28;20035;-74
2022/01/03 01:09:14;;;;;;;191.05;99.32;;;5.30;99.90;;;;;;4971897;28;20057;-74
2022/01/03 01:11:44;;;;;;;179.52;93.32;;;5.30;99.90;;;;;;4972167;28;20030;-74
2022/01/03 01:14:12;;;;;;;180.63;94.00;;;5.30;99.90;;;;;;4971532;28;20041;-74
2022/01/03 01:16:38;;;;;;;170.40;88.93;;;5.30;99.90;;;;;;4970731;28;20015;-74
2022/01/03 01:19:05;;;;;;;179.65;90.82;;;5.30;99.90;;;;;;4970980;28;20038;-73
2022/01/03 01:21:31;;;;;;;176.35;94.43;;;5.20;99.90;;;;;;4970646;28;20026;-74
2022/01/03 01:23:58;;;;;;;199.57;101.82;;;5.20;99.90;;;;;;4970624;28;20806;-74
2022/01/03 01:29:09;;;;;;;173.30;87.90;;;5.20;99.90;;;;;;4970270;28;20038;-74
2022/01/03 01:31:42;;;;;;;171.88;87.38;;;5.20;99.90;;;;;;4970582;28;20137;-74
2022/01/03 01:34:10;;;;;;;171.15;91.60;;;5.20;99.90;;;;;;4970108;28;20023;-74
2022/01/03 01:36:36;;;;;;;182.95;96.35;;;5.20;99.90;;;;;;4970218;28;20027;-74
2022/01/03 01:39:08;;;;;;;171.25;89.03;;;5.20;99.90;;;;;;4970605;28;20031;-73
2022/01/03 01:41:38;;;;;;;177.95;93.50;;;5.20;99.90;;;;;;4967829;28;20054;-74
2022/01/03 01:44:09;;;;;;;197.57;98.07;;;5.30;99.90;;;;;;4970097;28;20435;-74
2022/01/03 01:46:41;;;;;;;180.95;94.63;;;5.30;99.90;;;;;;4968249;28;20031;-74
2022/01/03 01:49:07;;;;;;;190.93;97.97;;;5.30;99.90;;;;;;4969945;28;20064;-74
2022/01/03 01:51:34;;;;;;;229.27;169.45;;;5.20;99.90;;;;;;4969862;28;20019;-74
2022/01/03 01:54:05;;;;;;;212.88;111.18;;;5.20;99.90;;;;;;4970269;28;20038;-74
2022/01/03 01:57:07;;;;;;;247.90;123.50;;;5.20;99.90;;;;;;4970300;28;20015;-74
2022/01/03 01:59:44;;;;;;;227.18;112.43;;;5.20;99.90;;;;;;4967820;28;20023;-74
2022/01/03 02:02:16;;;;;;;235.38;112.35;;;5.10;99.90;;;;;;4970265;28;20027;-74
2022/01/03 02:04:48;;;;;;;208.88;106.68;;;5.10;99.90;;;;;;4970186;28;20106;-74
2022/01/03 02:07:45;;;;;;;227.13;112.10;;;5.00;99.90;;;;;;4969604;28;20047;-74
2022/01/03 02:10:14;;;;;;;217.50;106.05;;;5.00;99.90;;;;;;4970022;28;20023;-74
2022/01/03 02:12:49;;;;;;;266.08;121.75;;;4.90;99.90;;;;;;4973264;28;20051;-74
2022/01/03 02:15:17;;;;;;;310.83;141.65;;;4.80;99.90;;;;;;4972948;28;21415;-74
2022/01/03 02:17:48;;;;;;;325.40;150.20;;;4.80;99.90;;;;;;4973886;28;20381;-74
2022/01/03 02:20:20;;;;;;;265.52;129.63;;;4.80;99.90;;;;;;4974031;28;20027;-74
2022/01/03 02:22:46;;;;;;;272.52;128.57;;;4.80;99.90;;;;;;4973335;28;20038;-74
2022/01/03 02:25:14;;;;;;;278.05;135.13;;;4.80;99.90;;;;;;4973024;28;20035;-74
2022/01/03 02:27:40;;;;;;;275.23;133.13;;;4.80;99.90;;;;;;4972889;28;20059;-74
2022/01/03 02:30:10;;;;;;;276.80;134.02;;;4.70;99.90;;;;;;4972971;28;20030;-74
2022/01/03 02:32:35;;;;;;;276.92;139.20;;;4.70;99.90;;;;;;4972726;28;20030;-74
2022/01/03 02:35:02;;;;;;;309.60;155.30;;;4.70;99.90;;;;;;4973129;28;20037;-74
2022/01/03 02:37:28;;;;;;;319.48;162.68;;;4.70;99.90;;;;;;4972615;28;20046;-74
2022/01/03 02:39:56;;;;;;;322.58;161.32;;;4.70;99.90;;;;;;4972671;28;20062;-74
2022/01/03 02:42:25;;;;;;;319.38;162.00;;;4.60;99.90;;;;;;4972822;28;20047;-74
2022/01/03 02:45:01;;;;;;;339.77;165.63;;;4.60;99.90;;;;;;4970538;28;20049;-74
2022/01/03 02:47:27;;;;;;;348.65;169.60;;;4.60;99.90;;;;;;4972492;28;20027;-74
2022/01/03 02:49:53;;;;;;;375.65;190.30;;;4.50;99.90;;;;;;4973829;28;20023;-74
2022/01/03 02:52:19;;;;;;;361.88;185.85;;;4.50;99.90;;;;;;4973231;28;20445;-74
2022/01/03 02:54:45;;;;;;;347.52;173.48;;;4.50;99.90;;;;;;4973252;28;20052;-74
2022/01/03 02:57:11;;;;;;;283.70;144.50;;;4.50;99.90;;;;;;4972764;28;20152;-74
2022/01/03 02:59:37;;;;;;;288.88;148.95;;;4.50;99.90;;;;;;4973495;28;20462;-74
2022/01/03 03:02:04;;;;;;;285.52;146.65;;;4.40;99.90;;;;;;4973071;28;20027;-75
2022/01/03 03:04:30;;;;;;;265.00;139.32;;;4.40;99.90;;;;;;4972862;28;20026;-74
2022/01/03 03:06:56;;;;;;;290.55;149.23;;;4.40;99.90;;;;;;4973156;28;20080;-74
2022/01/03 03:09:22;;;;;;;342.98;172.10;;;4.40;99.90;;;;;;4972654;28;20065;-75
2022/01/03 03:11:47;;;;;;;329.08;167.65;;;4.40;99.90;;;;;;4972847;28;20419;-74
2022/01/03 03:14:13;;;;;;;350.35;175.60;;;4.30;99.90;;;;;;4972682;28;20031;-74
2022/01/03 03:16:40;;;;;;;330.13;167.43;;;4.30;99.90;;;;;;4972959;28;20114;-74
2022/01/03 03:19:06;;;;;;;330.90;172.30;;;4.20;99.90;;;;;;4972462;28;20497;-74
2022/01/03 03:21:32;;;;;;;319.02;158.85;;;4.20;99.90;;;;;;4971881;28;20030;-74
2022/01/03 03:23:59;;;;;;;316.10;162.27;;;4.20;99.90;;;;;;4972868;28;20053;-74
2022/01/03 03:26:25;;;;;;;295.45;153.63;;;4.20;99.90;;;;;;4972563;28;20031;-75
2022/01/03 03:28:51;;;;;;;300.73;153.52;;;4.20;99.90;;;;;;4972535;28;20489;-74
2022/01/03 03:31:17;;;;;;;291.25;150.48;;;4.30;99.90;;;;;;4972403;28;20034;-74
2022/01/03 03:33:43;;;;;;;287.88;147.63;;;4.30;99.90;;;;;;4972447;28;20027;-74
2022/01/03 03:36:09;;;;;;;298.10;148.60;;;4.30;99.90;;;;;;4972804;28;20375;-74
2022/01/03 03:38:35;;;;;;;285.85;145.90;;;4.30;99.90;;;;;;4972316;28;20066;-74
2022/01/03 03:41:01;;;;;;;285.90;149.00;;;4.30;99.90;;;;;;4972439;28;20035;-74
2022/01/03 03:43:30;;;;;;;272.63;141.55;;;4.30;99.90;;;;;;4972475;28;20055;-74
2022/01/03 03:45:56;;;;;;;272.17;136.63;;;4.30;99.90;;;;;;4972278;28;20485;-74
2022/01/03 03:48:22;;;;;;;252.88;128.30;;;4.30;99.90;;;;;;4972071;28;20041;-74
2022/01/03 03:50:48;;;;;;;251.02;131.02;;;4.30;99.90;;;;;;4972326;28;20023;-74
2022/01/03 03:53:14;;;;;;;249.88;130.73;;;4.30;99.90;;;;;;4972178;28;20035;-74
2022/01/03 03:55:40;;;;;;;265.77;131.88;;;4.30;99.90;;;;;;4972394;28;20039;-74
2022/01/03 03:58:06;;;;;;;268.90;134.00;;;4.30;99.90;;;;;;4972179;28;20038;-74
2022/01/03 04:00:34;;;;;;;272.77;134.30;;;4.30;99.90;;;;;;4971826;28;20027;-74
2022/01/03 04:02:59;;;;;;;258.40;129.43;;;4.30;99.90;;;;;;4972281;28;20045;-74
2022/01/03 04:05:26;;;;;;;255.57;123.57;;;4.30;99.90;;;;;;4972030;28;20490;-74
2022/01/03 04:07:52;;;;;;;248.35;120.10;;;4.30;99.90;;;;;;4972058;28;20031;-74
2022/01/03 04:10:18;;;;;;;235.48;114.63;;;4.20;99.90;;;;;;4972138;28;20023;-74
2022/01/03 04:12:45;;;;;;;228.90;112.50;;;4.20;99.90;;;;;;4971831;28;20428;-74
2022/01/03 04:15:11;;;;;;;219.65;114.32;;;4.30;99.90;;;;;;4971597;28;20038;-74
2022/01/03 04:17:36;;;;;;;223.82;111.47;;;4.30;99.90;;;;;;4971947;28;20118;-74
2022/01/03 04:20:05;;;;;;;231.20;112.68;;;4.20;99.90;;;;;;4971764;28;20110;-74
2022/01/03 04:22:31;;;;;;;218.57;110.28;;;4.20;99.90;;;;;;4971409;28;20030;-74
2022/01/03 04:24:57;;;;;;;214.38;106.18;;;4.20;99.90;;;;;;4971778;28;20032;-74
2022/01/03 04:27:23;;;;;;;226.50;109.55;;;4.20;99.90;;;;;;4971478;28;20371;-74
2022/01/03 04:29:49;;;;;;;218.45;109.20;;;4.20;99.90;;;;;;4971610;28;20030;-74
2022/01/03 04:32:15;;;;;;;213.07;99.45;;;4.20;99.90;;;;;;4971807;28;20027;-74
2022/01/03 04:34:40;;;;;;;209.68;100.40;;;4.20;99.90;;;;;;4970450;28;20394;-74
2022/01/03 04:37:06;;;;;;;215.10;101.15;;;4.20;99.90;;;;;;4971339;28;20038;-74
2022/01/03 04:39:32;;;;;;;205.55;96.47;;;4.20;99.90;;;;;;4971309;28;20030;-74
2022/01/03 04:41:58;;;;;;;193.07;95.03;;;4.20;99.90;;;;;;4971228;28;20047;-74
2022/01/03 04:44:23;;;;;;;200.05;96.85;;;4.10;99.90;;;;;;4971223;28;20034;-74
2022/01/03 04:46:51;;;;;;;177.00;89.35;;;4.20;99.90;;;;;;4971237;28;20485;-74
2022/01/03 04:49:16;;;;;;;178.63;86.88;;;4.10;99.90;;;;;;4971398;28;20061;-74
2022/01/03 04:51:42;;;;;;;175.93;87.85;;;4.10;99.90;;;;;;4971527;28;20058;-74
2022/01/03 04:54:08;;;;;;;179.32;88.57;;;4.20;99.90;;;;;;4971475;28;20059;-74
2022/01/03 04:56:34;;;;;;;183.93;92.35;;;4.20;99.90;;;;;;4971285;28;20034;-74
2022/01/03 04:59:01;;;;;;;187.65;95.35;;;4.20;99.90;;;;;;4971518;28;20114;-74
2022/01/03 05:01:27;;;;;;;188.52;94.75;;;4.30;99.90;;;;;;4971417;28;20027;-74
2022/01/03 05:03:53;;;;;;;237.73;115.22;;;4.30;99.90;;;;;;4971200;28;20376;-74
2022/01/03 05:06:19;;;;;;;222.73;111.18;;;4.30;99.90;;;;;;4971388;28;20034;-74
2022/01/03 05:08:45;;;;;;;194.70;95.28;;;4.30;99.90;;;;;;4970913;28;20023;-74
2022/01/03 05:11:11;;;;;;;190.55;93.50;;;4.20;99.90;;;;;;4971136;28;20035;-74
2022/01/03 05:13:37;;;;;;;182.88;98.57;;;4.20;99.90;;;;;;4971205;28;20031;-74
2022/01/03 05:16:03;;;;;;;216.75;108.90;;;4.20;99.90;;;;;;4971209;28;20027;-74
2022/01/03 05:18:29;;;;;;;206.80;103.05;;;4.20;99.90;;;;;;4970695;28;20056;-74
2022/01/03 05:20:56;;;;;;;207.82;101.45;;;4.20;99.90;;;;;;4971033;28;20034;-75
2022/01/03 05:23:22;;;;;;;221.68;115.00;;;4.20;99.90;;;;;;4971116;28;20031;-74
2022/01/03 05:25:49;;;;;;;225.00;112.00;;;4.20;99.90;;;;;;4971638;28;20035;-74
2022/01/03 05:28:15;;;;;;;205.80;108.70;;;4.20;99.90;;;;;;4971804;28;20057;-74
2022/01/03 05:30:41;;;;;;;200.63;104.68;;;4.20;99.90;;;;;;4971882;28;20027;-74
2022/01/03 05:33:07;;;;;;;206.10;106.82;;;4.20;99.90;;;;;;4971592;28;20519;-74
2022/01/03 05:35:33;;;;;;;200.73;104.07;;;4.20;99.90;;;;;;4971293;28;20125;-74
2022/01/03 05:37:59;;;;;;;205.02;106.68;;;4.20;99.90;;;;;;4971410;28;20031;-74
2022/01/03 05:40:25;;;;;;;212.90;111.20;;;4.20;99.90;;;;;;4971364;28;20050;-74
2022/01/03 05:42:52;;;;;;;210.65;111.32;;;4.10;99.90;;;;;;4971614;28;20378;-74
2022/01/03 05:45:19;;;;;;;207.75;104.40;;;4.10;99.90;;;;;;4972718;28;20038;-74
2022/01/03 05:47:46;;;;;;;250.70;118.85;;;4.00;99.90;;;;;;4975419;28;20117;-74
2022/01/03 05:50:14;;;;;;;231.70;118.05;;;4.00;99.90;;;;;;4974850;28;20037;-74
2022/01/03 05:52:40;;;;;;;235.20;118.07;;;4.10;99.90;;;;;;4974773;28;20034;-74
2022/01/03 05:55:07;;;;;;;220.23;110.10;;;4.00;99.90;;;;;;4974953;28;20030;-74
2022/01/03 05:57:33;;;;;;;227.73;110.75;;;4.10;99.90;;;;;;4974848;28;20042;-74
2022/01/03 06:00:00;;;;;;;217.35;108.40;;;4.00;99.90;;;;;;4974363;28;20057;-74
2022/01/03 06:02:29;;;;;;;232.57;115.40;;;4.00;99.90;;;;;;4974348;28;20057;-74
2022/01/03 06:04:58;;;;;;;224.45;112.97;;;4.00;99.90;;;;;;4974667;28;20035;-74
2022/01/03 06:07:24;;;;;;;230.00;115.50;;;4.00;99.90;;;;;;4974323;28;20474;-74
2022/01/03 06:09:50;;;;;;;234.07;118.22;;;4.00;99.90;;;;;;4974617;28;20035;-74
2022/01/03 06:12:17;;;;;;;215.50;109.13;;;4.00;99.90;;;;;;4974786;28;20035;-74
2022/01/03 06:14:47;;;;;;;211.50;111.15;;;4.10;99.90;;;;;;4974134;28;20039;-74
2022/01/03 06:17:13;;;;;;;213.45;109.57;;;4.10;99.90;;;;;;4974343;28;20422;-74
2022/01/03 06:19:40;;;;;;;221.85;111.60;;;4.00;99.90;;;;;;4974463;28;20035;-75
2022/01/03 06:22:09;;;;;;;243.57;114.57;;;4.00;99.90;;;;;;4973832;28;20430;-75
2022/01/03 06:24:37;;;;;;;235.43;116.97;;;4.10;99.90;;;;;;4974051;28;20096;-74
2022/01/03 06:27:04;;;;;;;464.13;242.35;;;4.10;99.90;;;;;;4974068;28;20462;-74
2022/01/03 06:29:30;;;;;;;344.75;173.35;;;4.20;99.90;;;;;;4974440;28;20121;-74
2022/01/03 06:31:56;;;;;;;318.30;160.27;;;4.20;99.90;;;;;;4974401;28;20611;-74
2022/01/03 06:34:22;;;;;;;346.67;177.32;;;4.20;99.90;;;;;;4973835;28;20038;-74
2022/01/03 06:36:48;;;;;;;314.00;165.48;;;4.30;99.90;;;;;;4974235;28;20081;-74
2022/01/03 06:39:14;;;;;;;325.40;165.45;;;4.30;99.90;;;;;;4973315;28;20035;-75
2022/01/03 06:41:40;;;;;;;318.08;161.40;;;4.30;99.90;;;;;;4973964;28;20528;-75
2022/01/03 06:44:06;;;;;;;329.95;172.30;;;4.30;99.90;;;;;;4973975;28;20030;-75
2022/01/03 06:46:33;;;;;;;329.65;167.75;;;4.40;99.90;;;;;;4974477;28;20034;-75
2022/01/03 06:49:00;;;;;;;321.48;168.32;;;4.40;99.90;;;;;;4973980;28;20130;-74
2022/01/03 06:51:31;;;;;;;316.90;168.38;;;4.40;99.90;;;;;;4974494;28;20163;-74
2022/01/03 06:53:57;;;;;;;333.77;181.37;;;4.50;99.90;;;;;;4974184;28;20512;-74
2022/01/03 06:56:23;;;;;;;336.90;183.20;;;4.50;99.90;;;;;;4972761;28;20019;-74
2022/01/03 06:58:49;;;;;;;402.02;233.23;;;4.50;99.90;;;;;;4973845;28;20080;-74
2022/01/03 07:01:14;;;;;;;369.38;207.52;;;4.60;99.90;;;;;;4974126;28;20032;-74
2022/01/03 07:03:40;;;;;;;369.80;206.52;;;4.70;99.90;;;;;;4973640;28;20031;-74
2022/01/03 07:06:06;;;;;;;366.20;202.32;;;4.70;99.90;;;;;;4973515;28;20066;-74
2022/01/03 07:08:32;;;;;;;348.02;192.38;;;4.70;99.90;;;;;;4973915;28;20027;-74
2022/01/03 07:10:58;;;;;;;311.13;165.48;;;4.80;99.90;;;;;;4973150;28;20431;-74
2022/01/03 07:13:26;;;;;;;306.17;164.60;;;4.90;99.90;;;;;;4973435;28;20084;-74
2022/01/03 07:21:20;;;;;;;357.35;184.93;;;5.20;99.90;;;;;;4973524;28;20034;-74
2022/01/03 07:23:46;;;;;;;314.40;169.77;;;5.20;99.90;;;;;;4973154;28;20034;-74
2022/01/03 07:26:12;;;;;;;304.48;164.18;;;5.20;99.90;;;;;;4973726;28;20080;-74
2022/01/03 07:28:38;;;;;;;271.60;145.10;;;5.20;99.90;;;;;;4973220;28;20038;-74
2022/01/03 07:31:04;;;;;;;310.75;172.90;;;5.20;99.90;;;;;;4973630;28;20037;-74
2022/01/03 07:33:29;;;;;;;290.85;155.68;;;5.20;99.90;;;;;;4973334;28;20450;-74
2022/01/03 07:35:55;;;;;;;275.85;150.15;;;5.20;99.90;;;;;;4973264;28;20030;-74
2022/01/03 07:38:21;;;;;;;359.23;196.27;;;5.10;99.90;;;;;;4973393;28;20034;-74
2022/01/03 07:40:47;;;;;;;443.80;273.52;;;5.10;99.90;;;;;;4973400;28;20056;-74
2022/01/03 07:43:13;;;;;;;516.33;334.25;;;5.00;99.90;;;;;;4972780;28;20190;-74
2022/01/03 07:45:38;;;;;;;585.08;384.05;;;5.00;99.90;;;;;;4972144;28;20031;-74
2022/01/03 07:48:04;;;;;;;557.13;365.15;;;5.00;99.90;;;;;;4973259;28;20042;-74
2022/01/03 07:50:30;;;;;;;425.30;267.25;;;5.00;99.90;;;;;;4973342;28;20026;-74
2022/01/03 07:52:59;;;;;;;351.90;215.88;;;5.00;99.90;;;;;;4972645;28;20104;-74
2022/01/03 07:55:26;;;;;;;310.05;167.25;;;5.00;99.90;;;;;;4972822;28;20456;-74
2022/01/03 07:57:52;;;;;;;303.92;165.23;;;4.90;99.90;;;;;;4973160;28;20541;-74
2022/01/03 08:00:18;;;;;;;300.50;173.48;;;5.00;99.90;;;;;;4972917;28;20027;-74
2022/01/03 08:02:45;;;;;;;301.45;178.07;;;5.10;99.90;;;;;;4972992;28;20073;-74
2022/01/03 08:05:13;;;;;;;309.25;176.48;;;5.20;99.90;;;;;;4972647;28;20035;-74
2022/01/03 08:07:40;;;;;;;345.08;198.30;;;5.30;99.90;;;;;;4972401;28;20039;-74
2022/01/03 08:10:07;;;;;;;311.38;187.88;;;5.60;99.90;;;;;;4972955;28;20100;-72
2022/01/03 08:12:33;;;;;;;344.95;204.73;;;5.80;99.90;;;;;;4972737;28;20026;-73
2022/01/03 08:14:59;;;;;;;349.88;207.75;;;6.00;99.90;;;;;;4972784;28;20034;-73
2022/01/03 08:17:26;;;;;;;359.73;210.60;;;6.20;99.90;;;;;;4972755;28;20042;-74
2022/01/03 08:19:52;;;;;;;343.90;202.32;;;6.30;99.90;;;;;;4972419;28;20102;-73
2022/01/03 08:22:17;;;;;;;342.10;202.45;;;6.40;99.90;;;;;;4972244;28;20027;-74
2022/01/03 08:24:45;;;;;;;352.98;204.68;;;6.60;99.90;;;;;;4972452;28;20080;-73
2022/01/03 08:27:11;;;;;;;375.73;213.65;;;6.90;99.90;;;;;;4972338;28;20027;-73
2022/01/03 08:29:37;;;;;;;359.48;205.35;;;6.90;99.90;;;;;;4972564;28;20126;-73
2022/01/03 08:32:04;;;;;;;355.20;203.75;;;7.00;99.90;;;;;;4972675;28;20063;-73
2022/01/03 08:34:30;;;;;;;368.02;212.13;;;7.00;99.90;;;;;;4972152;28;20039;-73
2022/01/03 08:36:55;;;;;;;358.88;214.10;;;7.10;99.90;;;;;;4972363;28;20094;-73
2022/01/03 08:39:21;;;;;;;364.48;211.88;;;7.20;99.90;;;;;;4972235;28;20042;-73
2022/01/03 08:41:47;;;;;;;312.25;185.40;;;7.40;99.90;;;;;;4972483;28;20105;-74
2022/01/03 08:44:13;;;;;;;326.58;187.98;;;7.50;99.90;;;;;;4972450;28;20030;-74
2022/01/03 08:46:39;;;;;;;284.05;155.35;;;7.50;99.90;;;;;;4972411;28;20035;-74
2022/01/03 08:49:06;;;;;;;263.08;143.30;;;7.60;99.90;;;;;;4972227;28;20104;-74
2022/01/03 08:51:32;;;;;;;253.45;138.50;;;7.80;99.90;;;;;;4972287;28;20030;-74
2022/01/03 08:53:57;;;;;;;262.88;143.70;;;7.90;99.90;;;;;;4972212;28;20030;-74
2022/01/03 08:56:23;;;;;;;259.55;148.90;;;8.00;99.90;;;;;;4971349;28;20058;-74
2022/01/03 08:58:49;;;;;;;264.10;154.02;;;8.20;99.90;;;;;;4972152;28;20102;-74
2022/01/03 09:01:15;;;;;;;243.80;139.00;;;8.30;99.90;;;;;;4971498;28;20026;-74
2022/01/03 09:03:41;;;;;;;254.35;144.43;;;8.50;99.90;;;;;;4971772;28;20033;-74
2022/01/03 09:06:07;;;;;;;212.20;123.60;;;8.70;99.90;;;;;;4971565;28;20034;-74
2022/01/03 09:08:33;;;;;;;230.35;125.43;;;8.80;99.90;;;;;;4970830;28;20027;-74
2022/01/03 09:10:58;;;;;;;290.98;152.18;;;8.90;99.90;;;;;;4969035;28;20102;-74
2022/01/03 09:13:24;;;;;;;201.30;120.57;;;9.00;99.90;;;;;;4970655;28;20022;-74
2022/01/03 09:15:51;;;;;;;220.65;127.57;;;8.90;99.90;;;;;;4970477;28;20027;-74
2022/01/03 09:18:19;;;;;;;221.80;127.93;;;9.00;99.90;;;;;;4970715;28;20474;-74
2022/01/03 09:20:45;;;;;;;261.05;148.88;;;9.10;99.90;;;;;;4970940;28;20027;-74
2022/01/03 09:23:20;;;;;;;250.30;145.95;;;9.30;99.90;;;;;;4971961;28;20031;-74
2022/01/03 09:31:24;;;;;;;269.02;156.48;;;9.70;99.90;;;;;;4971053;28;20080;-75
2022/01/03 09:33:51;;;;;;;269.05;162.02;;;9.90;99.90;;;;;;4971768;28;20114;-74
2022/01/03 09:36:17;;;;;;;255.38;155.52;;;10.00;99.90;;;;;;4971755;28;20038;-74
2022/01/03 09:38:43;;;;;;;248.95;148.55;;;10.20;99.90;;;;;;4971592;28;20026;-75
2022/01/03 09:41:12;;;;;;;225.32;128.73;;;10.50;99.90;;;;;;4971163;28;20031;-75
2022/01/03 09:43:55;;;;;;;200.90;119.72;;;10.80;99.90;;;;;;4971065;28;20053;-75
2022/01/03 09:46:26;;;;;;;177.70;104.20;;;11.10;99.90;;;;;;4969032;28;20114;-75
2022/01/03 09:48:53;;;;;;;135.18;81.93;;;11.10;99.90;;;;;;4970735;28;20027;-75
2022/01/03 09:51:27;;;;;;;129.82;78.93;;;10.90;99.90;;;;;;4967993;28;20033;-75
2022/01/03 09:53:56;;;;;;;137.20;80.18;;;10.90;99.90;;;;;;4970607;28;20066;-74
2022/01/03 09:56:22;;;;;;;147.57;84.13;;;10.80;99.90;;;;;;4971205;28;20094;-74
2022/01/03 09:58:49;;;;;;;152.18;89.13;;;10.70;99.90;;;;;;4971357;28;20023;-74
2022/01/03 10:01:15;;;;;;;148.35;88.13;;;10.60;99.90;;;;;;4971590;28;20028;-75
2022/01/03 10:03:47;;;;;;;134.60;78.70;;;10.50;99.90;;;;;;4971563;28;20462;-74
2022/01/03 10:06:24;;;;;;;117.75;67.35;;;10.50;99.90;;;;;;4971217;28;20045;-74
2022/01/03 10:08:50;;;;;;;113.28;63.10;;;10.20;99.90;;;;;;4971173;28;20093;-75
2022/01/03 10:11:16;;;;;;;179.45;102.10;;;10.20;99.90;;;;;;4971263;28;20088;-74
2022/01/03 10:13:42;;;;;;;159.02;91.05;;;10.20;99.90;;;;;;4971451;28;20059;-74
2022/01/03 10:16:08;;;;;;;132.05;76.13;;;10.20;99.90;;;;;;4971324;28;20035;-74
2022/01/03 10:18:34;;;;;;;127.25;74.45;;;10.70;99.90;;;;;;4971269;28;20042;-75
2022/01/03 10:21:01;;;;;;;117.85;67.53;;;11.20;99.90;;;;;;4971171;28;20027;-74
2022/01/03 10:23:28;;;;;;;127.20;71.50;;;11.70;99.90;;;;;;4971031;28;20060;-74
2022/01/03 10:26:12;;;;;;;120.53;69.57;;;12.20;99.90;;;;;;4971039;28;20031;-75
2022/01/03 10:28:38;;;;;;;109.50;63.70;;;12.20;99.90;;;;;;4971004;28;20122;-75
2022/01/03 10:31:17;;;;;;;106.47;61.38;;;12.60;99.90;;;;;;4970973;28;20031;-74
2022/01/03 10:33:43;;;;;;;120.28;74.78;;;12.20;99.90;;;;;;4973957;28;20370;-75
2022/01/03 10:36:26;;;;;;;126.38;82.05;;;12.20;99.90;;;;;;4974524;28;20045;-75
2022/01/03 10:38:52;;;;;;;111.10;68.07;;;12.20;99.90;;;;;;4974412;28;20030;-74
2022/01/03 10:41:20;;;;;;;138.30;90.47;;;11.90;99.90;;;;;;4974024;28;20110;-75
2022/01/03 10:43:52;;;;;;;128.27;79.55;;;11.70;99.90;;;;;;4974037;28;20528;-75
2022/01/03 10:46:18;;;;;;;;;;;11.50;99.90;;;;;;4974743;28;20197;-74
2022/01/03 10:48:44;;;;;;;89.05;54.65;;;11.40;99.90;;;;;;4974088;28;19952;-75
2022/01/03 10:51:11;;;;;;;103.88;62.65;;;11.20;99.90;;;;;;4974160;28;20042;-75
2022/01/03 10:53:43;;;;;;;122.05;72.18;;;11.20;99.90;;;;;;4972307;28;20496;-74
2022/01/03 10:56:29;;;;;;;85.45;50.88;;;11.20;99.90;;;;;;4973806;28;20053;-74
2022/01/03 10:58:59;;;;;;;95.80;53.85;;;11.10;99.90;;;;;;4973779;28;20023;-74
2022/01/03 11:01:30;;;;;;;86.75;49.58;;;11.50;99.90;;;;;;4973456;28;20022;-74
2022/01/03 11:03:59;;;;;;;107.32;61.78;;;12.00;99.90;;;;;;4973150;28;20712;-74
2022/01/03 11:11:46;;;;;;;145.15;82.43;;;11.70;99.90;;;;;;4972896;28;20034;-74
2022/01/03 11:14:36;;;;;;;108.35;60.25;;;11.80;99.90;;;;;;4973193;28;20030;-74
2022/01/03 11:17:28;;;;;;;114.50;62.55;;;11.90;99.90;;;;;;4973485;28;20048;-74
2022/01/03 11:19:57;;;;;;;126.13;65.78;;;12.40;99.90;;;;;;4972655;28;20027;-74
2022/01/03 11:22:53;;;;;;;110.65;64.53;;;12.80;99.90;;;;;;4972722;28;20038;-74
2022/01/03 11:25:30;;;;;;;105.30;62.30;;;13.50;99.90;;;;;;5012706;28;20038;-74
2022/01/03 11:27:56;;;;;;;124.68;72.28;;;13.90;99.90;;;;;;5012256;28;20034;-74
2022/01/03 11:30:22;;;;;;;84.63;50.85;;;13.90;99.90;;;;;;5012322;28;20041;-74
2022/01/03 11:32:50;;;;;;;91.15;54.00;;;13.50;99.90;;;;;;5011991;28;20532;-73
2022/01/03 11:35:16;;;;;;;101.90;58.97;;;13.50;99.90;;;;;;5012533;28;20038;-74
2022/01/03 11:37:47;;;;;;;85.40;50.50;;;13.30;99.90;;;;;;5012248;28;20072;-74
2022/01/03 11:40:16;;;;;;;109.70;65.82;;;12.80;99.90;;;;;;5012632;28;20037;-73
2022/01/03 11:42:44;;;;;;;95.63;55.03;;;12.60;99.90;;;;;;5011397;28;20075;-73
2022/01/03 11:45:11;;;;;;;123.72;62.90;;;12.30;99.90;;;;;;5012373;28;20036;-73
2022/01/03 11:47:38;;;;;;;183.88;101.10;;;12.10;99.90;;;;;;5012013;28;20140;-73
2022/01/03 11:50:06;;;;;;;152.55;80.97;;;12.10;99.90;;;;;;5012325;28;20034;-73
2022/01/03 11:52:39;;;;;;;211.13;108.63;;;12.00;99.90;;;;;;5011933;28;20030;-73
2022/01/03 11:55:06;;;;;;;164.70;86.03;;;11.90;99.90;;;;;;5012693;28;20046;-73
2022/01/03 12:03:40;;;;;;;114.30;65.70;;;11.70;99.90;;;;;;4970941;28;20038;-74
2022/01/03 12:06:10;;;;;;;113.05;68.07;;;11.60;99.90;;;;;;4971461;28;20038;-74
2022/01/03 12:08:40;;;;;;;121.50;72.43;;;11.50;99.90;;;;;;4971845;28;20038;-73
2022/01/03 12:11:19;;;;;;;119.18;75.38;;;11.60;99.90;;;;;;4969124;28;20023;-74
2022/01/03 12:13:53;;;;;;;114.35;64.00;;;11.70;99.90;;;;;;4969740;28;20110;-74
2022/01/03 12:17:08;;;;;;;107.47;65.30;;;11.80;99.90;;;;;;4972007;28;20019;-73
2022/01/03 12:19:46;;;;;;;85.57;52.28;;;11.90;99.90;;;;;;5022076;28;20033;-74
2022/01/03 12:22:17;;;;;;;89.95;50.90;;;12.10;99.90;;;;;;5031379;28;20045;-74
2022/01/03 12:24:49;;;;;;;68.90;42.55;;;12.20;99.90;;;;;;5030841;28;20026;-73
2022/01/03 12:27:15;;;;;;;67.80;41.38;;;12.20;99.90;;;;;;5031495;28;20040;-73
2022/01/03 12:29:56;;;;;;;66.78;38.20;;;12.30;99.90;;;;;;5031126;28;20627;-73
2022/01/03 12:32:29;;;;;;;77.38;43.72;;;12.20;99.90;;;;;;5031012;28;20032;-73
2022/01/03 12:35:07;;;;;;;63.72;39.92;;;12.10;99.90;;;;;;5030993;28;20067;-73
2022/01/03 12:37:38;;;;;;;83.40;48.90;;;12.00;99.90;;;;;;5031165;28;20443;-73
2022/01/03 12:40:04;;;;;;;132.27;73.93;;;12.00;99.90;;;;;;5031067;28;20021;-73
2022/01/03 12:45:35;;;;;;;162.15;84.68;;;12.00;99.90;;;;;;5030624;28;20044;-73
2022/01/03 12:48:10;;;;;;;115.25;64.97;;;12.00;99.90;;;;;;5020402;28;20492;-73
2022/01/03 12:50:52;;;;;;;98.95;57.33;;;12.00;99.90;;;;;;5030895;28;20124;-73